sensor_id;sensor_type;location;lat;lon;timestamp;pressure;altitude;pressure_sealevel;temperature;humidity
53647;BME280;39550;52.230;5.194;2022-10-19T00:01:37;102872.16;;;12.33;72.63
53647;BME280;39550;52.230;5.194;2022-10-19T00:04:02;102865.31;;;12.35;72.94
53647;BME280;39550;52.230;5.194;2022-10-19T00:06:34;102869.63;;;12.34;72.71
53647;BME280;39550;52.230;5.194;2022-10-19T00:09:08;102870.38;;;12.32;73.30
53647;BME280;39550;52.230;5.194;2022-10-19T00:11:35;102865.13;;;12.29;73.51
53647;BME280;39550;52.230;5.194;2022-10-19T00:14:02;102867.75;;;12.30;73.57
53647;BME280;39550;52.230;5.194;2022-10-19T00:16:30;102863.38;;;12.27;73.59
53647;BME280;39550;52.230;5.194;2022-10-19T00:18:57;102854.75;;;12.27;72.97
53647;BME280;39550;52.230;5.194;2022-10-19T00:21:23;102861.69;;;12.28;73.31
53647;BME280;39550;52.230;5.194;2022-10-19T00:23:48;102853.78;;;12.25;72.83
53647;BME280;39550;52.230;5.194;2022-10-19T00:26:13;102851.16;;;12.23;73.05
53647;BME280;39550;52.230;5.194;2022-10-19T00:28:40;102858.09;;;12.24;73.00
53647;BME280;39550;52.230;5.194;2022-10-19T00:31:08;102851.16;;;12.23;73.02
53647;BME280;39550;52.230;5.194;2022-10-19T00:33:35;102854.56;;;12.22;73.34
53647;BME280;39550;52.230;5.194;2022-10-19T00:36:01;102856.22;;;12.20;72.94
53647;BME280;39550;52.230;5.194;2022-10-19T00:38:26;102852.69;;;12.18;73.56
53647;BME280;39550;52.230;5.194;2022-10-19T00:40:51;102839.72;;;12.17;73.36
53647;BME280;39550;52.230;5.194;2022-10-19T00:43:23;102850.06;;;12.17;72.54
53647;BME280;39550;52.230;5.194;2022-10-19T00:45:49;102846.63;;;12.16;73.35
53647;BME280;39550;52.230;5.194;2022-10-19T00:48:28;102851.75;;;12.15;72.80
53647;BME280;39550;52.230;5.194;2022-10-19T00:50:55;102850.84;;;12.14;73.00
53647;BME280;39550;52.230;5.194;2022-10-19T00:53:25;102850.78;;;12.13;73.52
53647;BME280;39550;52.230;5.194;2022-10-19T00:55:51;102857.69;;;12.12;72.84
53647;BME280;39550;52.230;5.194;2022-10-19T00:58:16;102852.41;;;12.09;73.13
53647;BME280;39550;52.230;5.194;2022-10-19T01:00:41;102857.59;;;12.09;72.92
53647;BME280;39550;52.230;5.194;2022-10-19T01:03:08;102847.16;;;12.06;72.53
53647;BME280;39550;52.230;5.194;2022-10-19T01:05:35;102844.63;;;12.07;72.72
53647;BME280;39550;52.230;5.194;2022-10-19T01:08:00;102841.84;;;12.03;73.04
53647;BME280;39550;52.230;5.194;2022-10-19T01:10:50;102844.56;;;12.06;72.84
53647;BME280;39550;52.230;5.194;2022-10-19T01:13:40;102837.63;;;12.05;73.11
53647;BME280;39550;52.230;5.194;2022-10-19T01:16:18;102841.75;;;12.00;73.22
53647;BME280;39550;52.230;5.194;2022-10-19T01:18:52;102838.34;;;12.01;73.08
53647;BME280;39550;52.230;5.194;2022-10-19T01:21:40;102834.81;;;11.99;72.89
53647;BME280;39550;52.230;5.194;2022-10-19T01:24:32;102831.38;;;11.98;72.46
53647;BME280;39550;52.230;5.194;2022-10-19T01:30:14;102834.72;;;11.96;73.15
53647;BME280;39550;52.230;5.194;2022-10-19T01:32:49;102830.28;;;11.93;73.03
53647;BME280;39550;52.230;5.194;2022-10-19T01:35:38;102832.97;;;11.95;72.46
53647;BME280;39550;52.230;5.194;2022-10-19T01:38:14;102831.19;;;11.93;72.78
53647;BME280;39550;52.230;5.194;2022-10-19T01:43:35;102831.06;;;11.90;73.10
53647;BME280;39550;52.230;5.194;2022-10-19T01:46:11;102830.19;;;11.90;72.91
53647;BME280;39550;52.230;5.194;2022-10-19T01:48:40;102829.19;;;11.86;73.42
53647;BME280;39550;52.230;5.194;2022-10-19T01:51:08;102829.19;;;11.86;72.78
53647;BME280;39550;52.230;5.194;2022-10-19T01:53:40;102825.69;;;11.84;72.91
53647;BME280;39550;52.230;5.194;2022-10-19T01:56:07;102816.03;;;11.79;73.19
53647;BME280;39550;52.230;5.194;2022-10-19T01:58:35;102817.91;;;11.83;72.79
53647;BME280;39550;52.230;5.194;2022-10-19T02:01:04;102834.28;;;11.83;72.82
53647;BME280;39550;52.230;5.194;2022-10-19T02:03:33;102830.63;;;11.78;72.61
53647;BME280;39550;52.230;5.194;2022-10-19T02:05:59;102834.16;;;11.80;72.92
53647;BME280;39550;52.230;5.194;2022-10-19T02:08:32;102829.00;;;11.80;72.60
53647;BME280;39550;52.230;5.194;2022-10-19T02:10:59;102828.91;;;11.77;73.22
53647;BME280;39550;52.230;5.194;2022-10-19T02:13:26;102823.75;;;11.77;72.28
53647;BME280;39550;52.230;5.194;2022-10-19T02:15:55;102825.38;;;11.75;72.90
53647;BME280;39550;52.230;5.194;2022-10-19T02:18:28;102817.47;;;11.70;72.83
53647;BME280;39550;52.230;5.194;2022-10-19T02:20:55;102819.28;;;11.73;72.33
53647;BME280;39550;52.230;5.194;2022-10-19T02:23:24;102820.09;;;11.72;72.78
53647;BME280;39550;52.230;5.194;2022-10-19T02:25:50;102812.31;;;11.70;73.26
53647;BME280;39550;52.230;5.194;2022-10-19T02:28:16;102809.69;;;11.69;72.63
53647;BME280;39550;52.230;5.194;2022-10-19T02:30:41;102809.69;;;11.69;73.12
53647;BME280;39550;52.230;5.194;2022-10-19T02:33:07;102803.50;;;11.65;73.38
53647;BME280;39550;52.230;5.194;2022-10-19T02:35:32;102811.31;;;11.67;72.92
53647;BME280;39550;52.230;5.194;2022-10-19T02:38:00;102804.38;;;11.66;72.95
53647;BME280;39550;52.230;5.194;2022-10-19T02:40:31;102811.22;;;11.64;72.56
53647;BME280;39550;52.230;5.194;2022-10-19T02:43:03;102807.81;;;11.65;72.57
53647;BME280;39550;52.230;5.194;2022-10-19T02:45:32;102804.28;;;11.63;73.06
53647;BME280;39550;52.230;5.194;2022-10-19T02:47:59;102805.94;;;11.61;72.96
53647;BME280;39550;52.230;5.194;2022-10-19T02:50:26;102800.78;;;11.61;72.84
53647;BME280;39550;52.230;5.194;2022-10-19T02:52:51;102805.94;;;11.61;72.86
53647;BME280;39550;52.230;5.194;2022-10-19T02:55:17;102799.00;;;11.59;72.71
53647;BME280;39550;52.230;5.194;2022-10-19T02:57:42;102799.00;;;11.59;72.70
53647;BME280;39550;52.230;5.194;2022-10-19T03:00:09;102804.06;;;11.56;72.81
53647;BME280;39550;52.230;5.194;2022-10-19T03:02:34;102804.91;;;11.55;72.52
53647;BME280;39550;52.230;5.194;2022-10-19T03:05:00;102805.72;;;11.54;73.04
53647;BME280;39550;52.230;5.194;2022-10-19T03:07:25;102807.47;;;11.55;72.73
53647;BME280;39550;52.230;5.194;2022-10-19T03:09:51;102798.72;;;11.52;73.16
53647;BME280;39550;52.230;5.194;2022-10-19T03:12:16;102797.03;;;11.52;72.65
53647;BME280;39550;52.230;5.194;2022-10-19T03:14:42;102791.88;;;11.52;72.70
53647;BME280;39550;52.230;5.194;2022-10-19T03:17:08;102790.13;;;11.51;72.95
53647;BME280;39550;52.230;5.194;2022-10-19T03:19:34;102797.00;;;11.51;72.94
53647;BME280;39550;52.230;5.194;2022-10-19T03:22:00;102792.66;;;11.50;72.56
53647;BME280;39550;52.230;5.194;2022-10-19T03:24:25;102796.94;;;11.49;72.82
53647;BME280;39550;52.230;5.194;2022-10-19T03:26:51;102796.94;;;11.49;72.27
53647;BME280;39550;52.230;5.194;2022-10-19T03:29:16;102789.25;;;11.51;72.37
53647;BME280;39550;52.230;5.194;2022-10-19T03:31:41;102790.16;;;11.53;72.63
53647;BME280;39550;52.230;5.194;2022-10-19T03:34:06;102786.81;;;11.55;72.11
53647;BME280;39550;52.230;5.194;2022-10-19T03:36:34;102784.13;;;11.52;72.58
53647;BME280;39550;52.230;5.194;2022-10-19T03:39:03;102779.84;;;11.53;72.51
53647;BME280;39550;52.230;5.194;2022-10-19T03:41:32;102777.22;;;11.51;72.74
53647;BME280;39550;52.230;5.194;2022-10-19T03:43:59;102781.56;;;11.52;72.56
53647;BME280;39550;52.230;5.194;2022-10-19T03:46:25;102778.94;;;11.51;72.83
53647;BME280;39550;52.230;5.194;2022-10-19T03:48:50;102781.47;;;11.49;72.48
53647;BME280;39550;52.230;5.194;2022-10-19T03:51:24;102785.66;;;11.47;72.84
53647;BME280;39550;52.230;5.194;2022-10-19T03:54:01;102780.50;;;11.47;72.68
53647;BME280;39550;52.230;5.194;2022-10-19T03:56:28;102782.22;;;11.47;73.22
53647;BME280;39550;52.230;5.194;2022-10-19T03:58:55;102776.16;;;11.46;72.79
53647;BME280;39550;52.230;5.194;2022-10-19T04:01:27;102774.44;;;11.45;72.28
53647;BME280;39550;52.230;5.194;2022-10-19T04:03:58;102781.31;;;11.46;72.59
53647;BME280;39550;52.230;5.194;2022-10-19T04:06:32;102774.44;;;11.45;72.48
53647;BME280;39550;52.230;5.194;2022-10-19T04:08:58;102777.81;;;11.44;72.16
53647;BME280;39550;52.230;5.194;2022-10-19T04:11:26;102772.66;;;11.44;72.50
53647;BME280;39550;52.230;5.194;2022-10-19T04:13:53;102776.06;;;11.43;72.50
53647;BME280;39550;52.230;5.194;2022-10-19T04:16:19;102776.88;;;11.42;72.70
53647;BME280;39550;52.230;5.194;2022-10-19T04:18:45;102778.59;;;11.41;72.21
53647;BME280;39550;52.230;5.194;2022-10-19T04:21:24;102776.78;;;11.39;72.24
53647;BME280;39550;52.230;5.194;2022-10-19T04:23:50;102780.25;;;11.39;72.89
53647;BME280;39550;52.230;5.194;2022-10-19T04:26:16;102775.84;;;11.37;72.44
53647;BME280;39550;52.230;5.194;2022-10-19T04:28:41;102772.31;;;11.35;72.56
53647;BME280;39550;52.230;5.194;2022-10-19T04:31:07;102778.31;;;11.34;72.43
53647;BME280;39550;52.230;5.194;2022-10-19T04:33:33;102780.84;;;11.32;72.81
53647;BME280;39550;52.230;5.194;2022-10-19T04:36:04;102781.59;;;11.30;72.44
53647;BME280;39550;52.230;5.194;2022-10-19T04:38:30;102779.00;;;11.30;72.29
53647;BME280;39550;52.230;5.194;2022-10-19T04:41:17;102785.94;;;11.31;72.40
53647;BME280;39550;52.230;5.194;2022-10-19T04:43:43;102784.13;;;11.28;72.69
53647;BME280;39550;52.230;5.194;2022-10-19T04:46:17;102784.97;;;11.27;72.51
53647;BME280;39550;52.230;5.194;2022-10-19T04:48:44;102782.31;;;11.25;73.03
53647;BME280;39550;52.230;5.194;2022-10-19T04:51:10;102785.72;;;11.24;72.49
53647;BME280;39550;52.230;5.194;2022-10-19T04:53:38;102778.81;;;11.23;72.47
53647;BME280;39550;52.230;5.194;2022-10-19T04:56:06;102781.38;;;11.23;72.31
53647;BME280;39550;52.230;5.194;2022-10-19T04:58:32;102779.56;;;11.21;72.34
53647;BME280;39550;52.230;5.194;2022-10-19T05:00:57;102782.09;;;11.19;72.55
53647;BME280;39550;52.230;5.194;2022-10-19T05:03:23;102777.81;;;11.20;72.01
53647;BME280;39550;52.230;5.194;2022-10-19T05:05:48;102776.84;;;11.16;72.33
53647;BME280;39550;52.230;5.194;2022-10-19T05:08:14;102775.94;;;11.16;72.21
53647;BME280;39550;52.230;5.194;2022-10-19T05:10:39;102769.84;;;11.14;72.91
53647;BME280;39550;52.230;5.194;2022-10-19T05:13:04;102764.69;;;11.14;71.96
53647;BME280;39550;52.230;5.194;2022-10-19T05:15:30;102773.19;;;11.11;72.45
53647;BME280;39550;52.230;5.194;2022-10-19T05:17:55;102771.44;;;11.10;71.67
53647;BME280;39550;52.230;5.194;2022-10-19T05:20:21;102767.94;;;11.08;71.90
53647;BME280;39550;52.230;5.194;2022-10-19T05:22:47;102771.38;;;11.08;72.19
53647;BME280;39550;52.230;5.194;2022-10-19T05:25:12;102770.56;;;11.10;72.07
53647;BME280;39550;52.230;5.194;2022-10-19T05:27:37;102762.78;;;11.08;72.24
53647;BME280;39550;52.230;5.194;2022-10-19T05:30:03;102761.88;;;11.07;71.55
53647;BME280;39550;52.230;5.194;2022-10-19T05:32:30;102761.06;;;11.08;71.97
53647;BME280;39550;52.230;5.194;2022-10-19T05:34:55;102766.16;;;11.07;72.75
53647;BME280;39550;52.230;5.194;2022-10-19T05:37:21;102760.91;;;11.04;73.00
53647;BME280;39550;52.230;5.194;2022-10-19T05:39:46;102757.50;;;11.05;72.49
53647;BME280;39550;52.230;5.194;2022-10-19T05:42:11;102769.56;;;11.06;72.27
53647;BME280;39550;52.230;5.194;2022-10-19T05:44:37;102766.28;;;11.10;72.15
53647;BME280;39550;52.230;5.194;2022-10-19T05:47:02;102757.63;;;11.08;71.95
53647;BME280;39550;52.230;5.194;2022-10-19T05:49:28;102762.00;;;11.11;72.37
53647;BME280;39550;52.230;5.194;2022-10-19T05:51:53;102755.78;;;11.05;71.97
53647;BME280;39550;52.230;5.194;2022-10-19T05:54:19;102754.03;;;11.04;71.95
53647;BME280;39550;52.230;5.194;2022-10-19T05:56:45;102761.88;;;11.07;72.72
53647;BME280;39550;52.230;5.194;2022-10-19T05:59:15;102759.28;;;11.07;72.24
53647;BME280;39550;52.230;5.194;2022-10-19T06:01:40;102762.53;;;11.02;72.19
53647;BME280;39550;52.230;5.194;2022-10-19T06:04:06;102757.25;;;10.99;72.20
53647;BME280;39550;52.230;5.194;2022-10-19T06:06:32;102753.72;;;10.95;72.16
53647;BME280;39550;52.230;5.194;2022-10-19T06:08:58;102751.88;;;10.93;72.22
53647;BME280;39550;52.230;5.194;2022-10-19T06:11:29;102762.06;;;10.89;71.95
53647;BME280;39550;52.230;5.194;2022-10-19T06:13:56;102757.69;;;10.87;71.83
53647;BME280;39550;52.230;5.194;2022-10-19T06:16:23;102751.66;;;10.86;72.00
53647;BME280;39550;52.230;5.194;2022-10-19T06:18:49;102741.22;;;10.83;71.86
53647;BME280;39550;52.230;5.194;2022-10-19T06:21:17;102744.50;;;10.79;71.71
53647;BME280;39550;52.230;5.194;2022-10-19T06:23:43;102754.06;;;10.82;71.81
53647;BME280;39550;52.230;5.194;2022-10-19T06:26:11;102761.75;;;10.80;71.54
53647;BME280;39550;52.230;5.194;2022-10-19T06:28:39;102773.78;;;10.81;71.65
53647;BME280;39550;52.230;5.194;2022-10-19T06:31:04;102774.50;;;10.77;71.62
53647;BME280;39550;52.230;5.194;2022-10-19T06:33:29;102763.38;;;10.78;71.50
53647;BME280;39550;52.230;5.194;2022-10-19T06:35:56;102768.53;;;10.78;71.56
53647;BME280;39550;52.230;5.194;2022-10-19T06:38:21;102765.91;;;10.77;71.69
53647;BME280;39550;52.230;5.194;2022-10-19T06:40:46;102761.59;;;10.77;72.14
53647;BME280;39550;52.230;5.194;2022-10-19T06:43:14;102759.88;;;10.76;71.59
53647;BME280;39550;52.230;5.194;2022-10-19T06:45:39;102759.88;;;10.76;71.80
53647;BME280;39550;52.230;5.194;2022-10-19T06:48:05;102759.88;;;10.76;71.73
53647;BME280;39550;52.230;5.194;2022-10-19T06:50:31;102764.19;;;10.77;71.83
53647;BME280;39550;52.230;5.194;2022-10-19T06:52:57;102754.72;;;10.76;71.73
53647;BME280;39550;52.230;5.194;2022-10-19T06:55:23;102740.88;;;10.74;71.64
53647;BME280;39550;52.230;5.194;2022-10-19T06:57:48;102744.28;;;10.73;71.72
53647;BME280;39550;52.230;5.194;2022-10-19T07:00:14;102744.28;;;10.73;71.65
53647;BME280;39550;52.230;5.194;2022-10-19T07:02:39;102753.72;;;10.72;71.81
53647;BME280;39550;52.230;5.194;2022-10-19T07:05:06;102757.09;;;10.71;71.90
53647;BME280;39550;52.230;5.194;2022-10-19T07:07:31;102758.00;;;10.72;71.96
53647;BME280;39550;52.230;5.194;2022-10-19T07:09:56;102751.06;;;10.71;71.85
53647;BME280;39550;52.230;5.194;2022-10-19T07:12:22;102749.31;;;10.70;71.90
53647;BME280;39550;52.230;5.194;2022-10-19T07:14:47;102746.72;;;10.70;71.97
53647;BME280;39550;52.230;5.194;2022-10-19T07:17:13;102738.00;;;10.66;71.95
53647;BME280;39550;52.230;5.194;2022-10-19T07:19:38;102745.91;;;10.71;71.48
53647;BME280;39550;52.230;5.194;2022-10-19T07:22:03;102759.63;;;10.70;71.93
53647;BME280;39550;52.230;5.194;2022-10-19T07:24:29;102763.09;;;10.70;71.63
53647;BME280;39550;52.230;5.194;2022-10-19T07:26:54;102761.38;;;10.71;71.52
53647;BME280;39550;52.230;5.194;2022-10-19T07:29:20;102759.63;;;10.70;71.82
53647;BME280;39550;52.230;5.194;2022-10-19T07:31:46;102757.03;;;10.70;71.88
53647;BME280;39550;52.230;5.194;2022-10-19T07:34:12;102748.50;;;10.71;72.31
53647;BME280;39550;52.230;5.194;2022-10-19T07:36:38;102755.41;;;10.72;71.57
53647;BME280;39550;52.230;5.194;2022-10-19T07:39:09;102759.75;;;10.73;71.94
53647;BME280;39550;52.230;5.194;2022-10-19T07:41:34;102759.63;;;10.70;71.87
53647;BME280;39550;52.230;5.194;2022-10-19T07:44:00;102763.09;;;10.70;72.11
53647;BME280;39550;52.230;5.194;2022-10-19T07:46:27;102763.03;;;10.69;72.06
53647;BME280;39550;52.230;5.194;2022-10-19T07:48:54;102764.78;;;10.70;72.19
53647;BME280;39550;52.230;5.194;2022-10-19T07:51:20;102752.72;;;10.69;72.37
53647;BME280;39550;52.230;5.194;2022-10-19T07:53:45;102751.78;;;10.67;71.90
53647;BME280;39550;52.230;5.194;2022-10-19T07:56:17;102759.50;;;10.67;72.39
53647;BME280;39550;52.230;5.194;2022-10-19T07:58:43;102752.59;;;10.66;71.83
53647;BME280;39550;52.230;5.194;2022-10-19T08:01:17;102773.34;;;10.69;72.28
53647;BME280;39550;52.230;5.194;2022-10-19T08:03:43;102765.63;;;10.69;72.27
53647;BME280;39550;52.230;5.194;2022-10-19T08:06:12;102770.69;;;10.67;72.38
53647;BME280;39550;52.230;5.194;2022-10-19T08:08:38;102776.69;;;10.66;72.50
53647;BME280;39550;52.230;5.194;2022-10-19T08:11:08;102766.44;;;10.68;72.32
53647;BME280;39550;52.230;5.194;2022-10-19T08:13:33;102771.59;;;10.68;72.22
53647;BME280;39550;52.230;5.194;2022-10-19T08:15:59;102768.19;;;10.69;72.63
53647;BME280;39550;52.230;5.194;2022-10-19T08:18:24;102762.19;;;10.70;72.37
53647;BME280;39550;52.230;5.194;2022-10-19T08:20:49;102760.47;;;10.69;72.57
53647;BME280;39550;52.230;5.194;2022-10-19T08:23:14;102764.78;;;10.70;72.69
53647;BME280;39550;52.230;5.194;2022-10-19T08:25:40;102764.78;;;10.70;72.15
53647;BME280;39550;52.230;5.194;2022-10-19T08:28:05;102759.63;;;10.70;72.54
53647;BME280;39550;52.230;5.194;2022-10-19T08:30:35;102764.78;;;10.70;72.61
53647;BME280;39550;52.230;5.194;2022-10-19T08:33:02;102761.38;;;10.71;72.71
53647;BME280;39550;52.230;5.194;2022-10-19T08:35:30;102751.00;;;10.69;72.82
53647;BME280;39550;52.230;5.194;2022-10-19T08:37:56;102754.34;;;10.67;72.54
53647;BME280;39550;52.230;5.194;2022-10-19T08:40:24;102747.69;;;10.72;72.92
53647;BME280;39550;52.230;5.194;2022-10-19T08:43:01;102737.31;;;10.70;72.50
53647;BME280;39550;52.230;5.194;2022-10-19T08:48:09;102735.59;;;10.71;73.27
53647;BME280;39550;52.230;5.194;2022-10-19T08:50:40;102733.03;;;10.71;73.10
53647;BME280;39550;52.230;5.194;2022-10-19T08:53:11;102736.34;;;10.68;73.53
53647;BME280;39550;52.230;5.194;2022-10-19T08:56:35;102732.22;;;10.72;73.18
53647;BME280;39550;52.230;5.194;2022-10-19T09:03:51;102721.66;;;10.66;73.02
53647;BME280;39550;52.230;5.194;2022-10-19T09:06:26;102714.06;;;10.69;73.56
53647;BME280;39550;52.230;5.194;2022-10-19T09:08:54;102711.47;;;10.69;73.60
53647;BME280;39550;52.230;5.194;2022-10-19T09:11:27;102709.66;;;10.66;73.47
53647;BME280;39550;52.230;5.194;2022-10-19T09:14:05;102710.63;;;10.70;73.67
53647;BME280;39550;52.230;5.194;2022-10-19T09:16:35;102714.97;;;10.71;73.85
53647;BME280;39550;52.230;5.194;2022-10-19T09:19:11;102712.34;;;10.69;73.75
53647;BME280;39550;52.230;5.194;2022-10-19T09:21:47;102714.09;;;10.70;73.77
53647;BME280;39550;52.230;5.194;2022-10-19T09:24:29;102715.03;;;10.72;73.68
53647;BME280;39550;52.230;5.194;2022-10-19T09:26:58;102708.19;;;10.73;73.74
53647;BME280;39550;52.230;5.194;2022-10-19T09:29:37;102702.19;;;10.74;73.64
53647;BME280;39550;52.230;5.194;2022-10-19T09:32:11;102697.03;;;10.74;74.00
53647;BME280;39550;52.230;5.194;2022-10-19T09:34:51;102696.22;;;10.75;73.86
53647;BME280;39550;52.230;5.194;2022-10-19T09:37:17;102694.56;;;10.77;73.75
53647;BME280;39550;52.230;5.194;2022-10-19T09:39:44;102685.13;;;10.78;73.84
53647;BME280;39550;52.230;5.194;2022-10-19T09:42:21;102679.22;;;10.80;73.91
53647;BME280;39550;52.230;5.194;2022-10-19T09:44:49;102680.94;;;10.81;73.89
53647;BME280;39550;52.230;5.194;2022-10-19T09:50:19;102679.31;;;10.83;73.78
53647;BME280;39550;52.230;5.194;2022-10-19T09:52:47;102673.34;;;10.84;73.84
53647;BME280;39550;52.230;5.194;2022-10-19T09:57:46;102673.34;;;10.84;73.85
53647;BME280;39550;52.230;5.194;2022-10-19T10:00:44;102677.81;;;10.88;73.79
53647;BME280;39550;52.230;5.194;2022-10-19T10:03:30;102671.75;;;10.88;73.59
53647;BME280;39550;52.230;5.194;2022-10-19T10:06:05;102681.28;;;10.90;73.78
53647;BME280;39550;52.230;5.194;2022-10-19T10:08:35;102676.13;;;10.90;73.77
53647;BME280;39550;52.230;5.194;2022-10-19T10:11:09;102678.78;;;10.92;74.09
53647;BME280;39550;52.230;5.194;2022-10-19T10:13:38;102668.44;;;10.92;73.69
53647;BME280;39550;52.230;5.194;2022-10-19T10:16:07;102676.38;;;10.97;73.78
53647;BME280;39550;52.230;5.194;2022-10-19T10:18:36;102674.63;;;10.96;73.67
53647;BME280;39550;52.230;5.194;2022-10-19T10:21:12;102679.88;;;10.99;73.67
53647;BME280;39550;52.230;5.194;2022-10-19T10:23:38;102676.47;;;11.00;73.66
53647;BME280;39550;52.230;5.194;2022-10-19T10:26:05;102689.44;;;11.01;73.74
53647;BME280;39550;52.230;5.194;2022-10-19T10:28:47;102683.41;;;11.01;73.45
53647;BME280;39550;52.230;5.194;2022-10-19T10:31:14;102692.06;;;11.03;73.51
53647;BME280;39550;52.230;5.194;2022-10-19T10:33:52;102679.50;;;11.12;73.56
53647;BME280;39550;52.230;5.194;2022-10-19T10:36:23;102679.97;;;11.02;73.14
53647;BME280;39550;52.230;5.194;2022-10-19T10:38:52;102667.22;;;11.05;73.26
53647;BME280;39550;52.230;5.194;2022-10-19T10:41:21;102648.91;;;10.99;73.41
53647;BME280;39550;52.230;5.194;2022-10-19T10:44:00;102649.91;;;11.02;73.39
53647;BME280;39550;52.230;5.194;2022-10-19T10:46:32;102650.00;;;11.05;73.24
53647;BME280;39550;52.230;5.194;2022-10-19T10:49:03;102644.09;;;11.08;72.98
53647;BME280;39550;52.230;5.194;2022-10-19T10:51:43;102634.69;;;11.10;73.14
53647;BME280;39550;52.230;5.194;2022-10-19T10:54:17;102637.31;;;11.12;73.13
53647;BME280;39550;52.230;5.194;2022-10-19T10:56:54;102628.94;;;11.17;72.96
53647;BME280;39550;52.230;5.194;2022-10-19T10:59:25;102627.88;;;11.12;73.14
53647;BME280;39550;52.230;5.194;2022-10-19T11:02:11;102620.25;;;11.15;73.10
53647;BME280;39550;52.230;5.194;2022-10-19T11:04:41;102619.44;;;11.16;72.91
53647;BME280;39550;52.230;5.194;2022-10-19T11:07:20;102623.88;;;11.20;72.98
53647;BME280;39550;52.230;5.194;2022-10-19T11:09:51;102614.41;;;11.21;73.02
53647;BME280;39550;52.230;5.194;2022-10-19T11:12:21;102601.56;;;11.22;72.90
53647;BME280;39550;52.230;5.194;2022-10-19T11:14:56;102610.13;;;11.21;72.79
53647;BME280;39550;52.230;5.194;2022-10-19T11:17:27;102602.47;;;11.23;72.97
53647;BME280;39550;52.230;5.194;2022-10-19T11:19:54;102594.75;;;11.24;72.69
53647;BME280;39550;52.230;5.194;2022-10-19T11:22:25;102589.59;;;11.24;72.85
53647;BME280;39550;52.230;5.194;2022-10-19T11:30:51;102568.97;;;11.24;72.95
53647;BME280;39550;52.230;5.194;2022-10-19T11:39:15;102543.25;;;11.28;72.69
53647;BME280;39550;52.230;5.194;2022-10-19T11:41:52;102537.22;;;11.27;72.67
53647;BME280;39550;52.230;5.194;2022-10-19T11:50:11;102521.88;;;11.32;73.14
53647;BME280;39550;52.230;5.194;2022-10-19T11:55:38;102515.88;;;11.33;72.84
53647;BME280;39550;52.230;5.194;2022-10-19T12:00:52;102502.03;;;11.31;72.83
53647;BME280;39550;52.230;5.194;2022-10-19T12:06:55;102493.66;;;11.38;72.66
53647;BME280;39550;52.230;5.194;2022-10-19T12:12:07;102493.66;;;11.38;73.10
53647;BME280;39550;52.230;5.194;2022-10-19T12:14:36;102475.66;;;11.39;72.98
53647;BME280;39550;52.230;5.194;2022-10-19T12:17:29;102467.06;;;11.40;73.18
53647;BME280;39550;52.230;5.194;2022-10-19T12:20:00;102458.50;;;11.41;72.85
53647;BME280;39550;52.230;5.194;2022-10-19T12:22:28;102457.72;;;11.44;72.53
53647;BME280;39550;52.230;5.194;2022-10-19T12:24:57;102447.41;;;11.44;72.88
53647;BME280;39550;52.230;5.194;2022-10-19T12:27:37;102451.81;;;11.48;72.92
53647;BME280;39550;52.230;5.194;2022-10-19T12:30:28;102451.00;;;11.49;72.81
53647;BME280;39550;52.230;5.194;2022-10-19T12:38:50;102437.34;;;11.53;73.05
53647;BME280;39550;52.230;5.194;2022-10-19T12:41:18;102433.53;;;11.71;72.59
53647;BME280;39550;52.230;5.194;2022-10-19T12:44:00;102422.38;;;11.72;72.04
53647;BME280;39550;52.230;5.194;2022-10-19T12:46:46;102417.94;;;11.66;72.52
53647;BME280;39550;52.230;5.194;2022-10-19T12:51:52;102410.97;;;11.64;73.05
53647;BME280;39550;52.230;5.194;2022-10-19T12:54:22;102407.50;;;11.63;73.06
53647;BME280;39550;52.230;5.194;2022-10-19T12:56:50;102405.75;;;11.62;73.13
53647;BME280;39550;52.230;5.194;2022-10-19T12:59:22;102386.84;;;11.63;73.38
53647;BME280;39550;52.230;5.194;2022-10-19T13:01:49;102386.84;;;11.63;72.95
53647;BME280;39550;52.230;5.194;2022-10-19T13:04:22;102385.97;;;11.63;72.96
53647;BME280;39550;52.230;5.194;2022-10-19T13:07:00;102381.72;;;11.65;73.15
53647;BME280;39550;52.230;5.194;2022-10-19T13:09:35;102368.81;;;11.65;73.15
53647;BME280;39550;52.230;5.194;2022-10-19T13:14:56;102369.72;;;11.67;72.99
53647;BME280;39550;52.230;5.194;2022-10-19T13:22:39;102359.59;;;11.73;72.57
53647;BME280;39550;52.230;5.194;2022-10-19T13:27:47;102345.22;;;11.83;72.41
53647;BME280;39550;52.230;5.194;2022-10-19T13:38:34;102340.97;;;11.86;71.88
53647;BME280;39550;52.230;5.194;2022-10-19T13:41:13;102337.56;;;11.87;72.37
53647;BME280;39550;52.230;5.194;2022-10-19T13:46:40;102335.84;;;11.88;72.15
53647;BME280;39550;52.230;5.194;2022-10-19T13:49:43;102342.09;;;11.95;72.49
53647;BME280;39550;52.230;5.194;2022-10-19T13:52:34;102338.38;;;12.18;71.53
53647;BME280;39550;52.230;5.194;2022-10-19T14:00:22;102331.78;;;13.04;67.88
53647;BME280;39550;52.230;5.194;2022-10-19T14:02:59;102331.22;;;13.19;68.06
53647;BME280;39550;52.230;5.194;2022-10-19T14:05:46;102329.75;;;13.31;67.41
53647;BME280;39550;52.230;5.194;2022-10-19T14:10:41;102326.31;;;13.32;67.05
53647;BME280;39550;52.230;5.194;2022-10-19T14:13:12;102337.31;;;12.82;68.86
53647;BME280;39550;52.230;5.194;2022-10-19T14:15:38;102332.16;;;12.45;69.88
53647;BME280;39550;52.230;5.194;2022-10-19T14:18:21;102334.16;;;12.20;70.84
53647;BME280;39550;52.230;5.194;2022-10-19T14:20:58;102340.84;;;12.12;71.58
53647;BME280;39550;52.230;5.194;2022-10-19T14:23:28;102344.25;;;12.11;71.72
53647;BME280;39550;52.230;5.194;2022-10-19T14:25:58;102340.84;;;12.12;71.17
53647;BME280;39550;52.230;5.194;2022-10-19T14:28:25;102348.50;;;12.09;71.65
53647;BME280;39550;52.230;5.194;2022-10-19T14:31:00;102342.34;;;12.04;72.01